Time;durP1;ratioP1;P1;durP2;ratioP2;P2;SDS_P1;SDS_P2;PMS_P1;PMS_P2;Temp;Humidity;BMP_temperature;BMP_pressure;BME280_temperature;BME280_humidity;BME280_pressure;Samples;Min_cycle;Max_cycle;Signal;HPM_P1;HPM_P2
2023/08/20 00:01:24;;;;;;;11.73;10.50;;;;;;;22.00;100.00;101354.19;4919374;28;20055;-85
2023/08/20 00:03:52;;;;;;;10.90;9.80;;;;;;;21.97;100.00;101355.19;4932759;28;20058;-88
2023/08/20 00:06:22;;;;;;;13.63;11.88;;;;;;;21.97;100.00;101364.03;4982219;28;20045;-87
2023/08/20 00:08:49;;;;;;;10.95;9.55;;;;;;;21.96;100.00;101372.97;4943964;28;20055;-84
2023/08/20 00:11:16;;;;;;;14.00;11.30;;;;;;;21.97;100.00;101369.38;4963033;28;20066;-84
2023/08/20 00:13:48;;;;;;;18.73;13.40;;;;;;;21.98;100.00;101378.25;4961554;28;20119;-85
2023/08/20 00:16:15;;;;;;;16.00;12.48;;;;;;;21.92;100.00;101370.53;4965831;28;20050;-85
2023/08/20 00:18:42;;;;;;;17.90;12.73;;;;;;;21.89;100.00;101373.31;4965754;28;20046;-85
2023/08/20 00:21:09;;;;;;;15.55;13.15;;;;;;;21.84;100.00;101376.19;4959629;28;20031;-84
2023/08/20 00:23:38;;;;;;;14.70;11.90;;;;;;;21.79;100.00;101379.06;4943820;28;20043;-86
2023/08/20 00:26:05;;;;;;;11.45;10.25;;;;;;;21.74;100.00;101389.03;4949119;28;20081;-86
2023/08/20 00:28:34;;;;;;;12.85;10.30;;;;;;;21.71;100.00;101388.34;4956075;28;20043;-86
2023/08/20 00:31:02;;;;;;;11.10;9.07;;;;;;;21.71;100.00;101389.19;4963742;28;20222;-86
2023/08/20 00:33:29;;;;;;;10.18;8.52;;;;;;;21.69;100.00;101387.53;4956498;28;20109;-84
2023/08/20 00:35:55;;;;;;;10.15;7.80;;;;;;;21.67;100.00;101394.72;4954806;28;20042;-86
2023/08/20 00:38:22;;;;;;;7.72;6.93;;;;;;;21.63;100.00;101388.69;4951097;28;20102;-88
2023/08/20 00:40:49;;;;;;;7.25;6.55;;;;;;;21.62;100.00;101405.59;4961799;28;20051;-87
2023/08/20 00:43:17;;;;;;;7.40;6.30;;;;;;;21.59;100.00;101403.91;4951105;28;20056;-87
2023/08/20 00:45:44;;;;;;;8.07;6.00;;;;;;;21.53;100.00;101403.28;4965959;28;20055;-89
2023/08/20 00:48:20;;;;;;;5.70;5.10;;;;;;;21.46;100.00;101403.53;4953383;28;20415;-85
2023/08/20 00:50:49;;;;;;;7.65;4.90;;;;;;;21.37;100.00;101403.94;4952860;28;20474;-88
2023/08/20 00:53:16;;;;;;;4.57;4.00;;;;;;;21.31;100.00;101414.84;4949035;28;20430;-89
2023/08/20 00:55:44;;;;;;;5.93;4.22;;;;;;;21.27;100.00;101407.91;4936624;28;20043;-88
2023/08/20 00:58:11;;;;;;;6.95;4.68;;;;;;;21.26;100.00;101411.50;4958811;28;20071;-89
2023/08/20 01:00:38;;;;;;;7.30;4.07;;;;;;;21.25;99.82;101408.00;4932307;28;20058;-87
2023/08/20 01:03:06;;;;;;;4.40;4.00;;;;;;;21.13;99.10;101409.38;4934317;28;20111;-86
2023/08/20 01:05:40;;;;;;;5.07;3.65;;;;;;;21.01;99.13;101411.66;4950481;28;20093;-85
2023/08/20 01:08:38;;;;;;;7.95;3.40;;;;;;;20.86;98.73;101416.69;4938734;28;20097;-90
2023/08/20 01:11:17;;;;;;;6.07;3.80;;;;;;;20.77;98.83;101414.38;4948768;28;20146;-84
2023/08/20 01:13:43;;;;;;;4.55;3.80;;;;;;;20.69;99.06;101413.78;4954553;28;20051;-85
2023/08/20 01:16:10;;;;;;;5.43;3.90;;;;;;;20.59;98.72;101408.81;4953230;28;20097;-85
2023/08/20 01:18:37;;;;;;;4.45;3.35;;;;;;;20.52;98.90;101399.34;4938325;29;20083;-86
2023/08/20 01:21:29;;;;;;;3.67;3.03;;;;;;;20.47;98.97;101409.31;4959495;28;20043;-85
2023/08/20 01:24:55;;;;;;;4.57;3.60;;;;;;;20.45;98.65;101408.47;4951611;28;20139;-84
2023/08/20 01:27:54;;;;;;;4.10;3.45;;;;;;;20.42;98.45;101405.94;4951151;28;20134;-87
2023/08/20 01:30:27;;;;;;;3.85;2.83;;;;;;;20.36;98.58;101404.38;4961700;28;20424;-85
2023/08/20 01:32:55;;;;;;;3.63;3.17;;;;;;;20.30;98.64;101404.63;4959013;28;20363;-84
2023/08/20 01:35:26;;;;;;;4.75;3.22;;;;;;;20.25;98.69;101403.94;4978481;28;20114;-89
2023/08/20 01:37:54;;;;;;;2.90;2.25;;;;;;;20.17;98.82;101413.06;4959895;28;20043;-88
2023/08/20 01:40:20;;;;;;;3.10;2.80;;;;;;;20.11;99.06;101405.28;4966078;28;20039;-86
2023/08/20 01:42:50;;;;;;;4.03;3.00;;;;;;;20.07;99.27;101403.69;4963655;28;20043;-85
2023/08/20 01:45:18;;;;;;;4.72;2.92;;;;;;;20.05;99.38;101404.66;4962608;28;20050;-84
2023/08/20 01:47:53;;;;;;;3.65;3.35;;;;;;;20.02;99.29;101402.13;4923983;28;20047;-89
2023/08/20 01:50:21;;;;;;;8.25;3.22;;;;;;;19.94;99.40;101405.91;4963472;28;20046;-86
2023/08/20 01:52:47;;;;;;;3.17;2.65;;;;;;;19.87;99.88;101403.53;4965289;28;20066;-89
2023/08/20 01:55:14;;;;;;;3.13;2.83;;;;;;;19.77;100.00;101406.50;4981865;28;20043;-86
2023/08/20 01:57:41;;;;;;;6.00;3.65;;;;;;;19.75;100.00;101415.44;4947219;28;20043;-85
2023/08/20 02:00:08;;;;;;;5.28;2.88;;;;;;;19.77;100.00;101408.28;4990078;28;20167;-92
2023/08/20 02:02:35;;;;;;;6.22;3.22;;;;;;;19.79;100.00;101402.00;4963389;28;20047;-89
2023/08/20 02:05:02;;;;;;;5.47;3.50;;;;;;;19.79;100.00;101407.31;4943848;28;20137;-86
2023/08/20 02:07:29;;;;;;;5.53;3.13;;;;;;;19.74;100.00;101401.28;4960334;28;20057;-87
2023/08/20 02:09:56;;;;;;;4.93;3.25;;;;;;;19.67;100.00;101400.66;4960629;28;20058;-88
2023/08/20 02:12:23;;;;;;;3.33;2.40;;;;;;;19.60;100.00;101403.56;4959472;28;20467;-85
2023/08/20 02:14:52;;;;;;;6.30;3.15;;;;;;;19.52;100.00;101401.19;4938319;28;20086;-86
2023/08/20 02:17:20;;;;;;;4.95;2.97;;;;;;;19.47;100.00;101409.28;4954860;28;20483;-86
2023/08/20 02:19:46;;;;;;;7.93;3.28;;;;;;;19.41;100.00;101409.53;4954664;28;20054;-84
2023/08/20 02:22:16;;;;;;;5.80;2.78;;;;;;;19.38;100.00;101404.28;4954064;28;20047;-86
2023/08/20 02:24:42;;;;;;;4.63;3.47;;;;;;;19.37;100.00;101409.66;4952485;28;20047;-83
2023/08/20 02:27:09;;;;;;;5.30;3.30;;;;;;;19.36;100.00;101406.16;4937332;28;20059;-85
2023/08/20 02:29:36;;;;;;;6.47;3.05;;;;;;;19.36;100.00;101413.22;4941798;28;20158;-87
2023/08/20 02:32:02;;;;;;;2.85;2.58;;;;;;;19.37;100.00;101409.66;4953313;28;20038;-85
2023/08/20 02:34:29;;;;;;;5.70;3.20;;;;;;;19.41;100.00;101409.53;4939640;28;20129;-84
2023/08/20 02:36:57;;;;;;;5.90;3.28;;;;;;;19.46;100.00;101417.31;4963678;28;20038;-85
2023/08/20 02:39:24;;;;;;;2.80;2.55;;;;;;;19.49;100.00;101414.56;4954705;28;20089;-89
2023/08/20 02:41:51;;;;;;;4.68;3.40;;;;;;;19.54;100.00;101414.41;4945581;28;20073;-86
2023/08/20 02:44:18;;;;;;;4.35;2.75;;;;;;;19.53;100.00;101416.19;4936668;28;20081;-86
2023/08/20 02:46:45;;;;;;;4.72;3.35;;;;;;;19.59;100.00;101417.75;4959531;28;20046;-89
2023/08/20 02:49:12;;;;;;;3.22;2.50;;;;;;;19.62;100.00;101415.88;4950047;28;20080;-87
2023/08/20 02:51:39;;;;;;;5.57;3.13;;;;;;;19.66;100.00;101414.84;4961550;28;20043;-85
2023/08/20 02:54:06;;;;;;;3.38;3.10;;;;;;;19.66;100.00;101414.84;4939807;28;20050;-84
2023/08/20 02:56:33;;;;;;;3.65;2.42;;;;;;;19.69;100.00;101418.31;4958557;28;20383;-85
2023/08/20 02:58:59;;;;;;;2.55;2.33;;;;;;;19.67;100.00;101419.25;4952121;28;20046;-87
2023/08/20 03:01:28;;;;;;;3.42;2.47;;;;;;;19.64;100.00;101423.78;4954405;28;20047;-85
2023/08/20 03:03:55;;;;;;;3.42;2.92;;;;;;;19.59;100.00;101420.41;4931982;28;20797;-85
2023/08/20 03:06:22;;;;;;;3.10;2.80;;;;;;;19.48;100.00;101426.09;4942573;28;20522;-87
2023/08/20 03:08:48;;;;;;;6.03;2.75;;;;;;;19.40;100.00;101428.13;4952322;28;20051;-85
2023/08/20 03:11:15;;;;;;;5.82;2.92;;;;;;;19.32;100.00;101426.63;4952047;28;20662;-85
2023/08/20 03:13:42;;;;;;;4.75;2.72;;;;;;;19.25;100.00;101429.53;4962381;28;20544;-86
2023/08/20 03:16:09;;;;;;;3.58;2.70;;;;;;;19.20;100.00;101429.66;4939179;28;20202;-85
2023/08/20 03:18:35;;;;;;;4.95;3.15;;;;;;;19.15;100.00;101423.63;4949770;28;20213;-85
2023/08/20 03:21:02;;;;;;;3.33;2.63;;;;;;;19.12;100.00;101419.28;4952848;28;20086;-85
2023/08/20 03:23:30;;;;;;;5.90;3.13;;;;;;;19.12;100.00;101421.09;4943622;28;20149;-84
2023/08/20 03:26:02;;;;;;;2.97;2.75;;;;;;;19.10;100.00;101417.59;4942877;28;20397;-87
2023/08/20 03:28:29;;;;;;;3.08;2.47;;;;;;;19.13;100.00;101417.53;4939082;28;20051;-86
2023/08/20 03:30:55;;;;;;;4.05;3.25;;;;;;;19.18;100.00;101421.75;4952663;28;20422;-84
2023/08/20 03:33:22;;;;;;;4.72;2.65;;;;;;;19.26;100.00;101420.66;4966551;28;20055;-86
2023/08/20 03:35:49;;;;;;;5.13;3.05;;;;;;;19.29;100.00;101420.53;4931635;28;20059;-86
2023/08/20 03:38:18;;;;;;;5.82;2.30;;;;;;;19.27;100.00;101419.75;4950235;28;20158;-85
2023/08/20 03:40:45;;;;;;;4.00;2.30;;;;;;;19.25;100.00;101425.06;4948079;28;20047;-85
2023/08/20 03:43:11;;;;;;;4.45;2.55;;;;;;;19.24;100.00;101430.44;4949650;28;20051;-89
2023/08/20 03:45:38;;;;;;;3.97;3.22;;;;;;;19.27;100.00;101419.75;4942279;29;20525;-84
2023/08/20 03:48:07;;;;;;;6.20;2.97;;;;;;;19.29;100.00;101420.53;4914655;28;20122;-88
2023/08/20 03:50:33;;;;;;;3.80;2.58;;;;;;;19.28;100.00;101424.09;4961261;28;20047;-87
2023/08/20 03:53:00;;;;;;;5.07;3.45;;;;;;;19.24;100.00;101430.44;4952780;28;20058;-88
2023/08/20 03:55:27;;;;;;;2.65;2.20;;;;;;;19.21;100.00;101435.84;4948749;28;20531;-90
2023/08/20 03:57:54;;;;;;;3.47;3.17;;;;;;;19.16;100.00;101434.22;4941142;28;20468;-86
2023/08/20 04:00:21;;;;;;;2.65;2.45;;;;;;;19.17;100.00;101443.91;4952219;28;20054;-86
2023/08/20 04:02:47;;;;;;;3.17;2.67;;;;;;;19.20;100.00;101444.72;4940088;28;20083;-84
2023/08/20 04:05:14;;;;;;;6.65;3.08;;;;;;;19.23;100.00;101447.28;4939812;28;20106;-85
2023/08/20 04:07:45;;;;;;;3.88;3.28;;;;;;;19.27;100.00;101451.59;4952967;28;20050;-85
2023/08/20 04:10:11;;;;;;;5.10;2.72;;;;;;;19.25;100.00;101456.91;4953874;28;20093;-85
2023/08/20 04:12:38;;;;;;;3.15;2.78;;;;;;;19.18;100.00;101464.22;4936451;28;20130;-84
2023/08/20 04:15:05;;;;;;;12.02;3.47;;;;;;;19.09;100.00;101471.63;4951978;28;20044;-85
2023/08/20 04:17:33;;;;;;;3.15;2.85;;;;;;;19.02;100.00;101473.59;4940197;29;20046;-84
2023/08/20 04:20:00;;;;;;;4.28;3.28;;;;;;;18.98;100.00;101478.13;4956484;28;20117;-87
2023/08/20 04:22:28;;;;;;;3.40;2.92;;;;;;;18.97;100.00;101481.69;4957383;28;20077;-85
2023/08/20 04:24:55;;;;;;;5.32;3.25;;;;;;;18.95;100.00;101472.03;4954640;28;20079;-90
2023/08/20 04:27:22;;;;;;;2.55;2.38;;;;;;;18.95;100.00;101467.59;4946169;28;20475;-84
2023/08/20 04:29:48;;;;;;;3.88;2.47;;;;;;;18.92;100.00;101477.47;4933190;29;20099;-85
2023/08/20 04:32:17;;;;;;;4.10;3.03;;;;;;;18.90;100.00;101471.31;4946780;28;20074;-85
2023/08/20 04:34:44;;;;;;;5.53;2.75;;;;;;;18.84;100.00;101477.66;4952965;28;20150;-84
2023/08/20 04:37:13;;;;;;;4.43;2.70;;;;;;;18.74;100.00;101476.19;4950991;28;20213;-86
2023/08/20 04:39:40;;;;;;;2.33;2.13;;;;;;;18.72;100.00;101480.66;4948097;28;20208;-85
2023/08/20 04:42:07;;;;;;;4.90;3.00;;;;;;;18.70;100.00;101472.75;4936300;28;20201;-85
2023/08/20 04:44:33;;;;;;;4.05;3.08;;;;;;;18.71;100.00;101473.63;4947130;28;20063;-84
2023/08/20 04:47:01;;;;;;;4.70;2.95;;;;;;;18.70;100.00;101466.59;4934321;28;20066;-86
2023/08/20 04:49:29;;;;;;;4.13;2.83;;;;;;;18.70;100.00;101472.75;4942155;28;20051;-85
2023/08/20 04:51:58;;;;;;;3.88;3.05;;;;;;;18.69;100.00;101478.97;4963273;28;20496;-85
2023/08/20 04:54:25;;;;;;;4.30;2.38;;;;;;;18.72;100.00;101488.63;4959173;28;20047;-86
2023/08/20 04:56:55;;;;;;;2.92;2.60;;;;;;;18.74;100.00;101489.47;4940349;28;20047;-85
2023/08/20 04:59:22;;;;;;;6.03;2.90;;;;;;;18.81;100.00;101496.28;4963752;28;20047;-85
2023/08/20 05:01:49;;;;;;;6.45;3.15;;;;;;;18.88;100.00;101483.72;4954594;28;20074;-88
2023/08/20 05:04:15;;;;;;;3.67;3.28;;;;;;;18.98;100.00;101491.41;4940110;28;20513;-85
2023/08/20 05:06:42;;;;;;;4.63;2.88;;;;;;;19.07;100.00;101495.53;4937800;29;20571;-90
2023/08/20 05:09:12;;;;;;;7.75;3.17;;;;;;;19.18;100.00;101495.22;4940823;28;20418;-86
2023/08/20 05:11:39;;;;;;;3.85;2.47;;;;;;;19.26;100.00;101495.81;4958382;28;20098;-86
2023/08/20 05:14:05;;;;;;;6.10;3.35;;;;;;;19.30;100.00;101493.94;4954696;28;20082;-88
2023/08/20 05:16:32;;;;;;;3.40;3.15;;;;;;;19.30;100.00;101497.47;4950084;28;20138;-85
2023/08/20 05:18:58;;;;;;;5.90;3.58;;;;;;;19.30;100.00;101491.28;4956442;28;20070;-85
2023/08/20 05:21:25;;;;;;;5.38;2.83;;;;;;;19.34;100.00;101498.25;4954796;28;20039;-84
2023/08/20 05:23:54;;;;;;;3.53;3.08;;;;;;;19.39;100.00;101506.06;4940142;28;20058;-89
2023/08/20 05:26:21;;;;;;;3.05;2.53;;;;;;;19.45;100.00;101500.53;4955773;28;20130;-88
2023/08/20 05:28:47;;;;;;;4.03;2.72;;;;;;;19.45;100.00;101496.13;4952548;28;20493;-86
2023/08/20 05:31:14;;;;;;;4.10;3.25;;;;;;;19.46;100.00;101507.59;4953981;28;20049;-85
2023/08/20 05:33:43;;;;;;;4.68;3.38;;;;;;;19.41;100.00;101496.25;4935958;28;20502;-85
2023/08/20 05:36:10;;;;;;;6.25;2.97;;;;;;;19.37;100.00;101499.94;4938973;28;20122;-87
2023/08/20 05:38:37;;;;;;;3.80;3.40;;;;;;;19.29;100.00;101493.06;4958463;28;20134;-85
2023/08/20 05:41:04;;;;;;;6.20;3.78;;;;;;;19.26;100.00;101498.47;4947075;28;20046;-87
2023/08/20 05:43:30;;;;;;;5.32;3.30;;;;;;;19.23;100.00;101485.31;4967703;28;20074;-83
2023/08/20 05:45:57;;;;;;;5.32;3.75;;;;;;;19.27;100.00;101491.41;4960773;28;20042;-83
2023/08/20 05:48:23;;;;;;;4.10;2.85;;;;;;;19.31;100.00;101469.16;4969634;28;20061;-82
2023/08/20 05:50:50;;;;;;;3.58;2.83;;;;;;;19.33;100.00;101467.28;4972630;28;20098;-90
2023/08/20 05:53:17;;;;;;;5.45;3.85;;;;;;;19.38;100.00;101467.16;4964309;28;20046;-82
2023/08/20 05:55:44;;;;;;;3.97;2.70;;;;;;;19.42;100.00;101459.03;4966329;28;20094;-84
2023/08/20 05:58:12;;;;;;;10.20;3.55;;;;;;;19.47;100.00;101464.19;4955936;28;20642;-92
2023/08/20 06:00:39;;;;;;;3.45;3.10;;;;;;;19.45;100.00;101466.91;4956877;28;20054;-87
2023/08/20 06:03:07;;;;;;;5.32;2.85;;;;;;;19.44;100.00;101467.81;4956537;28;20035;-86
2023/08/20 06:05:36;;;;;;;5.57;2.42;;;;;;;19.47;100.00;101465.06;4975927;28;20070;-86
2023/08/20 06:08:03;;;;;;;6.00;4.07;;;;;;;19.52;100.00;101459.59;4967460;28;20111;-83
2023/08/20 06:10:30;;;;;;;4.18;2.72;;;;;;;19.60;100.00;101460.19;4947123;28;20053;-84
2023/08/20 06:12:58;;;;;;;4.78;3.08;;;;;;;19.66;100.00;101457.34;4939586;28;20047;-85
2023/08/20 06:15:25;;;;;;;5.38;3.08;;;;;;;19.71;100.00;101462.50;4941277;28;20047;-86
2023/08/20 06:17:51;;;;;;;4.72;3.05;;;;;;;19.80;100.00;101454.22;4960542;28;20050;-86
2023/08/20 06:20:18;;;;;;;5.25;2.35;;;;;;;19.91;100.00;101459.19;4947748;28;20102;-85
2023/08/20 06:22:45;;;;;;;3.47;2.53;;;;;;;20.03;99.51;101462.34;4963413;28;20047;-85
2023/08/20 06:25:12;;;;;;;9.43;3.05;;;;;;;20.22;98.79;101458.09;4959610;28;20047;-88
2023/08/20 06:27:39;;;;;;;3.53;2.63;;;;;;;20.46;97.19;101472.25;4959862;28;20055;-87
2023/08/20 06:30:07;;;;;;;5.65;2.42;;;;;;;20.64;95.12;101462.72;4957486;28;20070;-85
2023/08/20 06:32:34;;;;;;;3.90;2.67;;;;;;;20.77;94.73;101460.47;4954423;28;20051;-85
2023/08/20 06:35:01;;;;;;;8.57;2.75;;;;;;;20.77;94.52;101468.47;4954583;28;20673;-84
2023/08/20 06:37:28;;;;;;;4.85;2.38;;;;;;;20.69;93.98;101475.84;4959275;28;20058;-89
2023/08/20 06:39:55;;;;;;;2.63;2.25;;;;;;;20.63;93.97;101486.72;4959258;28;20523;-88
2023/08/20 06:42:23;;;;;;;3.00;2.03;;;;;;;20.61;93.84;101485.88;4956510;28;20049;-86
2023/08/20 06:44:50;;;;;;;2.17;1.98;;;;;;;20.65;92.81;101487.53;4959289;28;20039;-85
2023/08/20 06:47:16;;;;;;;5.85;2.17;;;;;;;20.75;92.17;101482.75;4955347;28;20141;-86
2023/08/20 06:49:43;;;;;;;5.05;2.13;;;;;;;20.92;90.79;101482.94;4956717;28;20073;-86
2023/08/20 06:52:10;;;;;;;2.75;1.90;;;;;;;21.19;89.87;101485.44;4944123;28;20122;-91
2023/08/20 06:54:36;;;;;;;6.03;2.03;;;;;;;21.51;88.24;101485.94;4939990;29;20480;-85
2023/08/20 06:57:03;;;;;;;2.88;2.17;;;;;;;21.81;86.81;101489.13;4945903;28;20090;-87
2023/08/20 06:59:30;;;;;;;2.67;1.90;;;;;;;22.03;85.55;101495.31;4949311;28;20051;-84
2023/08/20 07:01:57;;;;;;;4.38;1.67;;;;;;;22.45;84.71;101486.38;4940345;28;20059;-84
2023/08/20 07:04:24;;;;;;;1.83;1.55;;;;;;;22.83;80.72;101488.19;4953372;28;20415;-86
2023/08/20 07:06:52;;;;;;;2.03;1.75;;;;;;;23.18;80.75;101488.34;4948674;28;20068;-83
2023/08/20 07:09:18;;;;;;;2.97;1.88;;;;;;;23.50;77.84;101492.09;4937473;28;20507;-87
2023/08/20 07:11:45;;;;;;;2.55;1.35;;;;;;;23.94;77.56;101494.31;4952702;28;20500;-83
2023/08/20 07:14:11;;;;;;;2.45;1.92;;;;;;;24.51;74.98;101490.47;4953639;28;20043;-84
2023/08/20 07:16:38;;;;;;;2.55;1.45;;;;;;;24.92;72.17;101484.63;4966907;28;20142;-86
2023/08/20 07:19:06;;;;;;;2.60;1.60;;;;;;;25.26;71.29;101497.94;4959639;28;20047;-83
2023/08/20 07:21:33;;;;;;;2.83;1.58;;;;;;;25.61;69.41;101488.81;4948268;28;20543;-83
2023/08/20 07:24:01;;;;;;;1.85;1.70;;;;;;;25.87;66.41;101488.09;4956025;28;20066;-85
2023/08/20 07:26:27;;;;;;;3.53;1.83;;;;;;;26.28;65.27;101497.28;4955921;28;20521;-85
2023/08/20 07:28:57;;;;;;;1.70;1.60;;;;;;;26.48;60.59;101495.19;4969032;28;20047;-82
2023/08/20 07:31:31;;;;;;;2.80;1.40;;;;;;;26.48;60.24;101500.53;4954897;28;20044;-85
2023/08/20 07:34:01;;;;;;;2.75;1.60;;;;;;;26.90;61.43;101502.34;4956907;28;20062;-84
2023/08/20 07:36:28;;;;;;;3.13;1.77;;;;;;;27.27;57.38;101492.84;4958318;28;20450;-84
2023/08/20 07:38:55;;;;;;;4.28;2.00;;;;;;;27.40;57.44;101497.34;4954771;28;20062;-86
2023/08/20 07:41:23;;;;;;;2.92;1.58;;;;;;;27.52;56.88;101495.66;4944670;28;20133;-90
2023/08/20 07:43:50;;;;;;;1.80;1.42;;;;;;;27.71;54.53;101495.25;4935498;29;20055;-84
2023/08/20 07:46:18;;;;;;;1.83;1.50;;;;;;;27.78;55.30;101494.84;4946303;28;20453;-83
2023/08/20 07:48:44;;;;;;;2.55;1.52;;;;;;;28.08;54.59;101478.41;4950743;28;20043;-83
2023/08/20 07:51:11;;;;;;;3.92;1.73;;;;;;;28.74;53.31;101486.34;4933832;28;20063;-82
2023/08/20 07:53:38;;;;;;;2.92;1.75;;;;;;;29.16;49.55;101494.06;4962904;28;20050;-83
2023/08/20 07:56:05;;;;;;;3.95;0.98;;;;;;;29.29;51.62;101492.19;4955415;28;20521;-83
2023/08/20 07:58:31;;;;;;;1.63;1.35;;;;;;;29.70;49.61;101498.97;4968945;28;20047;-82
2023/08/20 08:00:59;;;;;;;1.40;1.30;;;;;;;29.68;48.40;101500.06;4943644;28;20051;-89
2023/08/20 08:03:29;;;;;;;3.40;1.38;;;;;;;29.68;48.91;101502.78;4942665;29;20043;-85
2023/08/20 08:05:56;;;;;;;3.10;1.38;;;;;;;29.95;46.99;101507.91;4960716;28;20047;-85
2023/08/20 08:08:24;;;;;;;4.22;1.55;;;;;;;30.10;46.95;101503.13;4946949;28;20115;-82
2023/08/20 08:10:51;;;;;;;2.65;1.88;;;;;;;30.32;45.57;101504.97;4947750;28;20035;-86
2023/08/20 08:13:21;;;;;;;4.75;1.65;;;;;;;30.70;45.29;101502.91;4969455;28;20035;-91
2023/08/20 08:15:48;;;;;;;3.47;1.95;;;;;;;31.29;44.26;101503.53;4964732;28;20055;-83
2023/08/20 08:18:14;;;;;;;2.50;1.40;;;;;;;31.49;44.02;101508.13;4955777;28;20043;-88
2023/08/20 08:20:41;;;;;;;1.80;1.65;;;;;;;31.75;41.54;101501.53;4953966;28;20441;-83
2023/08/20 08:23:08;;;;;;;5.03;2.13;;;;;;;31.97;40.25;101498.66;4959339;28;20711;-87
2023/08/20 08:25:35;;;;;;;3.28;1.45;;;;;;;32.17;41.13;101496.94;4953234;28;20054;-83
2023/08/20 08:28:03;;;;;;;1.80;1.52;;;;;;;32.56;41.14;101504.41;4938034;28;20094;-83
2023/08/20 08:30:30;;;;;;;3.30;1.88;;;;;;;32.59;38.90;101504.13;4938349;29;20439;-83
2023/08/20 08:32:57;;;;;;;3.60;1.67;;;;;;;32.63;39.26;101505.56;4950412;28;20517;-80
2023/08/20 08:35:23;;;;;;;2.30;1.42;;;;;;;32.88;38.55;101508.81;4953200;28;20066;-84
2023/08/20 08:37:50;;;;;;;1.35;1.25;;;;;;;32.49;39.09;101508.66;4953826;28;20049;-83
2023/08/20 08:40:18;;;;;;;1.23;1.13;;;;;;;32.97;39.00;101507.97;4937309;28;20074;-87
2023/08/20 08:42:50;;;;;;;1.48;1.38;;;;;;;33.53;37.73;101510.16;4953441;28;20078;-84
2023/08/20 08:45:20;;;;;;;1.40;1.33;;;;;;;33.77;37.07;101509.72;4944458;28;20663;-84
2023/08/20 08:47:47;;;;;;;3.83;1.40;;;;;;;34.23;36.25;101501.75;4948804;28;20589;-83
2023/08/20 08:50:15;;;;;;;2.97;1.25;;;;;;;34.84;35.94;101508.53;4939225;28;20078;-82
2023/08/20 08:52:43;;;;;;;2.75;1.15;;;;;;;34.94;34.25;101511.16;4955077;28;20065;-83
2023/08/20 08:55:09;;;;;;;2.78;1.10;;;;;;;35.21;33.95;101509.41;4954313;28;20479;-84
2023/08/20 08:57:38;;;;;;;2.47;1.77;;;;;;;35.03;33.73;101512.13;4953168;28;20322;-83
2023/08/20 09:00:06;;;;;;;2.20;1.35;;;;;;;35.18;33.48;101513.28;4953265;28;20062;-82
2023/08/20 09:02:32;;;;;;;4.05;1.60;;;;;;;35.32;33.74;101509.19;4919367;29;20074;-82
2023/08/20 09:04:59;;;;;;;2.85;1.45;;;;;;;35.80;33.63;101517.94;4935226;29;20063;-84
2023/08/20 09:07:26;;;;;;;2.70;1.48;;;;;;;36.45;31.83;101518.53;4942817;29;20043;-84
2023/08/20 09:10:00;;;;;;;1.42;1.00;;;;;;;36.08;31.50;101505.03;4956766;28;20066;-81
2023/08/20 09:12:28;;;;;;;2.28;1.35;;;;;;;34.95;32.05;101518.31;4945411;28;20043;-83
2023/08/20 09:14:57;;;;;;;2.17;1.23;;;;;;;35.31;32.51;101517.50;4953007;28;20051;-83
2023/08/20 09:17:27;;;;;;;1.83;1.27;;;;;;;36.53;31.42;101513.13;4943208;28;20054;-82
2023/08/20 09:19:57;;;;;;;1.63;1.05;;;;;;;36.88;30.89;101509.38;4949956;28;20042;-84
2023/08/20 09:22:28;;;;;;;1.70;1.10;;;;;;;37.07;30.12;101507.34;4957839;28;20079;-81
2023/08/20 09:24:57;;;;;;;1.27;0.98;;;;;;;36.71;29.97;101505.72;4962294;28;20043;-85
2023/08/20 09:27:25;;;;;;;2.22;0.75;;;;;;;37.22;30.35;101508.41;4951416;28;20083;-83
2023/08/20 09:29:57;;;;;;;2.03;0.85;;;;;;;37.34;29.36;101505.34;4944465;28;20058;-82
2023/08/20 09:32:30;;;;;;;3.03;0.88;;;;;;;37.63;28.56;101504.84;4984841;28;20058;-87
2023/08/20 09:34:57;;;;;;;3.38;1.17;;;;;;;37.20;28.90;101499.50;5074203;23;20055;-82
2023/08/20 09:37:27;;;;;;;1.73;1.08;;;;;;;37.70;27.97;101496.78;4999686;28;20045;-82
2023/08/20 09:39:55;;;;;;;0.88;0.88;;;;;;;37.67;28.58;101500.72;5015456;28;20062;-88
2023/08/20 09:42:22;;;;;;;1.48;0.80;;;;;;;38.28;27.42;101497.56;5009542;28;20995;-89
2023/08/20 09:44:50;;;;;;;1.27;1.10;;;;;;;38.62;27.15;101503.72;4991899;28;20065;-86
2023/08/20 09:47:17;;;;;;;1.30;0.63;;;;;;;38.63;26.46;101489.03;4992255;28;20050;-83
2023/08/20 09:49:47;;;;;;;1.20;1.02;;;;;;;39.45;26.01;101494.00;4993154;28;20042;-88
2023/08/20 09:52:32;;;;;;;3.33;0.82;;;;;;;38.96;26.04;101492.47;4989998;28;20051;-86
2023/08/20 09:55:12;;;;;;;1.35;1.20;;;;;;;39.43;26.47;101498.81;4988538;28;20042;-88
2023/08/20 09:57:41;;;;;;;1.40;0.93;;;;;;;39.62;26.75;101488.34;5019471;28;20474;-85
2023/08/20 10:00:12;;;;;;;2.00;0.98;;;;;;;40.37;26.03;101492.03;4991341;28;20058;-85
2023/08/20 10:02:41;;;;;;;3.17;1.57;;;;;;;40.59;25.68;101481.16;5009850;28;20477;-85
2023/08/20 10:05:10;;;;;;;1.50;0.82;;;;;;;41.08;24.84;101483.19;4975358;28;20046;-85
2023/08/20 10:07:38;;;;;;;1.70;1.13;;;;;;;41.79;23.74;101482.28;4991482;28;20561;-84
2023/08/20 10:10:10;;;;;;;3.60;1.52;;;;;;;41.67;24.04;101481.16;4976856;28;20409;-87
2023/08/20 10:12:39;;;;;;;2.03;1.00;;;;;;;41.46;23.83;101484.78;4992447;28;20050;-85
2023/08/20 10:15:10;;;;;;;1.75;0.73;;;;;;;41.04;23.62;101478.25;4977753;28;20050;-84
2023/08/20 10:17:40;;;;;;;3.50;1.20;;;;;;;41.49;24.24;101485.25;5002651;28;20057;-92
2023/08/20 10:20:09;;;;;;;0.95;0.82;;;;;;;41.93;22.90;101474.13;5026445;28;20062;-87
2023/08/20 10:22:44;;;;;;;1.20;0.57;;;;;;;42.02;22.76;101478.41;5013038;28;20061;-85
2023/08/20 10:25:13;;;;;;;1.77;1.00;;;;;;;41.66;22.49;101480.28;4978013;28;20038;-85
2023/08/20 10:27:44;;;;;;;1.33;0.93;;;;;;;41.63;22.73;101474.34;4979634;28;20053;-85
2023/08/20 10:30:25;;;;;;;2.55;1.23;;;;;;;42.12;22.77;101469.81;4992841;28;20494;-83
2023/08/20 10:32:58;;;;;;;2.22;1.13;;;;;;;41.94;22.81;101470.34;5009712;28;20552;-82
2023/08/20 10:35:48;;;;;;;1.05;0.95;;;;;;;41.93;22.82;101482.38;5120341;23;20061;-83
2023/08/20 10:38:22;;;;;;;1.58;1.00;;;;;;;41.48;23.32;101474.44;5052018;28;20535;-87
2023/08/20 10:40:56;;;;;;;1.30;0.90;;;;;;;41.90;22.81;101475.38;5049621;28;20053;-85
2023/08/20 10:43:49;;;;;;;1.95;0.98;;;;;;;41.97;22.80;101475.44;5034479;28;20041;-84
2023/08/20 10:46:22;;;;;;;1.08;0.70;;;;;;;42.68;21.91;101485.31;5048841;28;20732;-84
2023/08/20 10:48:59;;;;;;;2.47;1.00;;;;;;;42.82;21.82;101480.69;5052299;28;20431;-85
2023/08/20 10:51:27;;;;;;;0.75;0.75;;;;;;;42.81;22.53;101493.59;5050663;28;20041;-86
2023/08/20 10:54:09;;;;;;;0.88;0.85;;;;;;;44.19;20.16;101491.25;5053013;28;20064;-84
2023/08/20 10:56:56;;;;;;;2.63;1.00;;;;;;;44.40;19.53;101483.78;5051602;28;20048;-87
2023/08/20 10:59:30;;;;;;;1.05;0.80;;;;;;;43.94;19.97;101482.88;5050124;28;20396;-85
2023/08/20 11:01:59;;;;;;;1.08;0.95;;;;;;;43.79;20.85;101485.84;5045184;28;20049;-83
2023/08/20 11:04:34;;;;;;;1.38;1.10;;;;;;;44.55;19.49;101489.00;5046768;28;20501;-86
2023/08/20 11:07:02;;;;;;;0.85;0.70;;;;;;;44.50;19.65;101484.16;5034011;28;20045;-84
2023/08/20 11:09:32;;;;;;;2.20;0.85;;;;;;;44.44;18.85;101487.78;5044229;28;20033;-86
2023/08/20 11:11:59;;;;;;;2.00;0.85;;;;;;;44.69;19.63;101487.00;5051727;28;20056;-87
2023/08/20 11:14:26;;;;;;;1.33;0.95;;;;;;;44.75;19.37;101489.75;5049717;28;20048;-89
2023/08/20 11:16:53;;;;;;;2.20;0.95;;;;;;;45.12;19.43;101489.09;5050164;28;20068;-84
2023/08/20 11:19:24;;;;;;;0.77;0.77;;;;;;;46.07;18.26;101479.69;5043103;28;20063;-90
2023/08/20 11:21:52;;;;;;;2.15;1.25;;;;;;;46.28;18.47;101479.50;5075865;28;20131;-85
2023/08/20 11:24:22;;;;;;;2.38;1.27;;;;;;;46.02;18.50;101478.72;5051151;28;20045;-85
2023/08/20 11:26:49;;;;;;;1.42;0.85;;;;;;;46.09;18.24;101479.50;5051113;28;20041;-84
2023/08/20 11:29:21;;;;;;;2.15;1.20;;;;;;;45.55;18.94;101471.75;5050807;28;20140;-84